createdAt,value
2017-12-24T00:00:25.223Z,0
2017-12-24T00:01:34.050Z,0
2017-12-24T00:02:42.878Z,0
2017-12-24T00:03:51.757Z,0
2017-12-24T00:05:00.587Z,0
2017-12-24T00:06:09.415Z,0
2017-12-24T00:07:18.520Z,0
2017-12-24T00:08:27.348Z,0
2017-12-24T00:09:36.328Z,0
2017-12-24T00:10:45.157Z,0
2017-12-24T00:11:53.982Z,0
2017-12-24T00:13:02.812Z,0
2017-12-24T00:14:11.639Z,0
2017-12-24T00:15:20.889Z,0
2017-12-24T00:16:29.991Z,0
2017-12-24T00:17:38.817Z,0
2017-12-24T00:18:47.646Z,0
2017-12-24T00:19:56.477Z,0
2017-12-24T00:21:05.310Z,0
2017-12-24T00:22:14.134Z,0
2017-12-24T00:23:22.963Z,0
2017-12-24T00:24:31.792Z,0
2017-12-24T00:25:40.898Z,0
2017-12-24T00:26:49.877Z,0
2017-12-24T00:27:58.704Z,0
2017-12-24T00:29:07.813Z,0
2017-12-24T00:30:16.641Z,0
2017-12-24T00:31:25.471Z,0
2017-12-24T00:32:34.397Z,0
2017-12-24T00:33:43.778Z,0
2017-12-24T00:34:52.606Z,0
2017-12-24T00:36:01.436Z,0
2017-12-24T00:37:10.265Z,0
2017-12-24T00:38:19.095Z,0
2017-12-24T00:39:27.925Z,0
2017-12-24T00:40:36.752Z,0
2017-12-24T00:41:45.582Z,0
2017-12-24T00:42:54.411Z,0
2017-12-24T00:44:03.240Z,0
2017-12-24T00:45:12.069Z,0
2017-12-24T00:46:20.897Z,0
2017-12-24T00:47:29.724Z,0
2017-12-24T00:48:38.553Z,0
2017-12-24T00:49:47.383Z,0
2017-12-24T00:50:56.210Z,0
2017-12-24T00:52:05.584Z,0
2017-12-24T00:53:14.414Z,0
2017-12-24T00:54:23.244Z,0
2017-12-24T00:55:32.072Z,0
2017-12-24T00:56:41.173Z,0
2017-12-24T00:57:50.001Z,0
2017-12-24T00:58:58.830Z,0
2017-12-24T01:00:07.657Z,0
2017-12-24T01:01:16.784Z,0
2017-12-24T01:02:25.613Z,0
2017-12-24T01:03:34.716Z,0
2017-12-24T01:04:43.544Z,0
2017-12-24T01:05:52.373Z,0
2017-12-24T01:07:01.353Z,0
2017-12-24T01:08:10.184Z,0
2017-12-24T01:09:19.013Z,0
2017-12-24T01:10:27.843Z,0
2017-12-24T01:11:36.670Z,0
2017-12-24T01:12:45.498Z,0
2017-12-24T01:13:54.328Z,0
2017-12-24T01:15:03.159Z,0
2017-12-24T01:16:11.988Z,0
2017-12-24T01:17:20.816Z,0
2017-12-24T01:18:29.892Z,0
2017-12-24T01:19:38.720Z,0
2017-12-24T01:20:47.550Z,0
2017-12-24T01:21:56.376Z,0
2017-12-24T01:23:05.203Z,0
2017-12-24T01:24:14.036Z,0
2017-12-24T01:25:22.866Z,0
2017-12-24T01:26:31.692Z,0
2017-12-24T01:27:40.522Z,0
2017-12-24T01:28:49.624Z,0
2017-12-24T01:29:58.601Z,0
2017-12-24T01:31:07.430Z,0
2017-12-24T01:32:16.257Z,0
2017-12-24T01:33:25.083Z,0
2017-12-24T01:34:33.911Z,0
2017-12-24T01:35:42.790Z,0
2017-12-24T01:36:51.616Z,0
2017-12-24T01:38:00.444Z,0
2017-12-24T01:39:09.273Z,0
2017-12-24T01:40:18.100Z,0
2017-12-24T01:41:27.081Z,0
2017-12-24T01:42:36.185Z,0
2017-12-24T01:43:45.015Z,0
2017-12-24T01:44:54.119Z,0
2017-12-24T01:46:02.947Z,0
2017-12-24T01:47:12.077Z,0
2017-12-24T01:48:21.459Z,0
2017-12-24T01:49:30.564Z,0
2017-12-24T01:50:39.670Z,0
2017-12-24T01:51:48.502Z,0
2017-12-24T01:52:57.361Z,0
2017-12-24T01:54:06.159Z,0
2017-12-24T01:55:14.987Z,0
2017-12-24T01:56:23.816Z,0
2017-12-24T01:57:32.643Z,0
2017-12-24T01:58:41.798Z,0
2017-12-24T01:59:50.627Z,0
2017-12-24T02:00:59.457Z,0
2017-12-24T02:02:08.286Z,0
2017-12-24T02:03:17.114Z,0
2017-12-24T02:04:26.193Z,0
2017-12-24T02:05:35.020Z,0
2017-12-24T02:06:43.849Z,0
2017-12-24T02:07:52.676Z,0
2017-12-24T02:09:01.504Z,0
2017-12-24T02:10:10.382Z,0
2017-12-24T02:11:19.210Z,0
2017-12-24T02:12:28.037Z,0
2017-12-24T02:13:36.869Z,0
2017-12-24T02:14:45.693Z,0
2017-12-24T02:15:54.521Z,0
2017-12-24T02:17:03.350Z,0
2017-12-24T02:18:12.179Z,0
2017-12-24T02:19:21.008Z,0
2017-12-24T02:20:29.836Z,0
2017-12-24T02:21:38.713Z,0
2017-12-24T02:22:47.541Z,0
2017-12-24T02:23:56.371Z,0
2017-12-24T02:25:05.200Z,0
2017-12-24T02:26:14.304Z,0
2017-12-24T02:27:23.411Z,0
2017-12-24T02:28:32.240Z,0
2017-12-24T02:29:41.340Z,0
2017-12-24T02:30:50.166Z,0
2017-12-24T02:31:59.273Z,0
2017-12-24T02:33:08.100Z,0
2017-12-24T02:34:16.931Z,0
2017-12-24T02:35:25.808Z,0
2017-12-24T02:36:34.635Z,0
2017-12-24T02:37:43.474Z,0
2017-12-24T02:38:52.305Z,0
2017-12-24T02:40:01.137Z,0
2017-12-24T02:41:09.967Z,0
2017-12-24T02:42:19.067Z,0
2017-12-24T02:43:27.899Z,0
2017-12-24T02:44:36.830Z,0
2017-12-24T02:45:45.661Z,0
2017-12-24T02:46:54.490Z,0
2017-12-24T02:48:03.320Z,0
2017-12-24T02:49:12.147Z,0
2017-12-24T02:50:21.076Z,0
2017-12-24T02:51:29.902Z,0
2017-12-24T02:52:39.005Z,0
2017-12-24T02:53:47.835Z,0
2017-12-24T02:54:56.663Z,0
2017-12-24T02:56:05.640Z,0
2017-12-24T02:57:14.468Z,0
2017-12-24T02:58:23.295Z,0
2017-12-24T02:59:32.402Z,0
2017-12-24T03:00:41.231Z,0
2017-12-24T03:01:50.357Z,0
2017-12-24T03:02:59.185Z,0
2017-12-24T03:04:08.016Z,0
2017-12-24T03:05:17.114Z,0
2017-12-24T03:06:25.944Z,0
2017-12-24T03:07:34.874Z,0
2017-12-24T03:08:43.703Z,0
2017-12-24T03:09:52.529Z,0
2017-12-24T03:11:01.358Z,0
2017-12-24T03:12:10.185Z,0
2017-12-24T03:13:19.012Z,0
2017-12-24T03:14:27.841Z,0
2017-12-24T03:15:36.670Z,0
2017-12-24T03:16:45.494Z,0
2017-12-24T03:17:54.324Z,0
2017-12-24T03:19:03.152Z,0
2017-12-24T03:20:11.978Z,0
2017-12-24T03:21:20.801Z,0
2017-12-24T03:22:29.628Z,0
2017-12-24T03:23:38.733Z,0
2017-12-24T03:24:47.715Z,0
2017-12-24T03:25:56.811Z,0
2017-12-24T03:27:05.640Z,0
2017-12-24T03:28:14.470Z,0
2017-12-24T03:29:23.299Z,0
2017-12-24T03:30:32.281Z,0
2017-12-24T03:31:41.113Z,0
2017-12-24T03:32:49.944Z,0
2017-12-24T03:33:58.774Z,0
2017-12-24T03:35:07.883Z,0
2017-12-24T03:36:16.984Z,0
2017-12-24T03:37:26.086Z,0
2017-12-24T03:38:34.916Z,0
2017-12-24T03:39:43.742Z,0
2017-12-24T03:40:52.572Z,0
2017-12-24T03:42:01.498Z,0
2017-12-24T03:43:10.326Z,0
2017-12-24T03:44:19.158Z,0
2017-12-24T03:45:27.987Z,0
2017-12-24T03:46:37.092Z,0
2017-12-24T03:47:45.968Z,0
2017-12-24T03:48:54.796Z,0
2017-12-24T03:50:03.628Z,0
2017-12-24T03:51:12.730Z,0
2017-12-24T03:52:21.560Z,0
2017-12-24T03:53:30.440Z,0
2017-12-24T03:54:39.269Z,0
2017-12-24T03:55:48.098Z,0
2017-12-24T03:56:56.925Z,0
2017-12-24T03:58:05.754Z,0
2017-12-24T03:59:14.583Z,0
2017-12-24T04:00:23.409Z,0
2017-12-24T04:01:32.236Z,0
2017-12-24T04:02:41.063Z,0
2017-12-24T04:03:49.891Z,0
2017-12-24T04:04:58.869Z,0
2017-12-24T04:06:07.697Z,0
2017-12-24T04:07:16.523Z,0
2017-12-24T04:08:25.350Z,0
2017-12-24T04:09:34.177Z,0
2017-12-24T04:10:43.156Z,0
2017-12-24T04:11:52.255Z,0
2017-12-24T04:13:01.081Z,0
2017-12-24T04:14:09.909Z,0
2017-12-24T04:15:18.738Z,0
2017-12-24T04:16:27.566Z,0
2017-12-24T04:17:36.396Z,0
2017-12-24T04:18:45.222Z,0
2017-12-24T04:19:54.052Z,0
2017-12-24T04:21:02.881Z,0
2017-12-24T04:22:11.859Z,0
2017-12-24T04:23:20.687Z,0
2017-12-24T04:24:29.514Z,0
2017-12-24T04:25:38.341Z,0
2017-12-24T04:26:47.170Z,0
2017-12-24T04:27:56.001Z,0
2017-12-24T04:29:04.830Z,0
2017-12-24T04:30:13.658Z,0
2017-12-24T04:31:23.043Z,0
2017-12-24T04:32:31.874Z,0
2017-12-24T04:33:41.275Z,0
2017-12-24T04:34:50.106Z,0
2017-12-24T04:35:58.928Z,0
2017-12-24T04:37:07.757Z,0
2017-12-24T04:38:16.584Z,0
2017-12-24T04:39:25.511Z,0
2017-12-24T04:40:34.339Z,0
2017-12-24T04:41:43.167Z,0
2017-12-24T04:42:51.997Z,0
2017-12-24T04:44:00.826Z,0
2017-12-24T04:45:09.853Z,0
2017-12-24T04:46:18.683Z,0
2017-12-24T04:47:27.511Z,0
2017-12-24T04:48:36.340Z,0
2017-12-24T04:49:45.170Z,0
2017-12-24T04:50:54.048Z,0
2017-12-24T04:52:02.877Z,0
2017-12-24T04:53:11.706Z,0
2017-12-24T04:54:20.534Z,0
2017-12-24T04:55:29.365Z,0
2017-12-24T04:56:38.297Z,0
2017-12-24T04:57:47.125Z,0
2017-12-24T04:58:55.952Z,0
2017-12-24T05:00:04.781Z,0
2017-12-24T05:01:13.612Z,0
2017-12-24T05:02:22.539Z,0
2017-12-24T05:03:31.368Z,0
2017-12-24T05:04:40.198Z,0
2017-12-24T05:05:49.026Z,0
2017-12-24T05:06:57.852Z,0
2017-12-24T05:08:06.731Z,0
2017-12-24T05:09:15.556Z,0
2017-12-24T05:10:24.388Z,0
2017-12-24T05:11:33.216Z,0
2017-12-24T05:12:42.327Z,0
2017-12-24T05:13:51.639Z,0
2017-12-24T05:15:00.471Z,0
2017-12-24T05:16:09.296Z,0
2017-12-24T05:17:18.124Z,0
2017-12-24T05:18:26.951Z,0
2017-12-24T05:19:35.932Z,0
2017-12-24T05:20:44.760Z,0
2017-12-24T05:21:53.587Z,0
2017-12-24T05:23:02.415Z,0
2017-12-24T05:24:11.240Z,0
2017-12-24T05:25:20.369Z,0
2017-12-24T05:26:29.195Z,0
2017-12-24T05:27:38.022Z,0
2017-12-24T05:28:46.848Z,0
2017-12-24T05:29:55.950Z,0
2017-12-24T05:31:04.780Z,0
2017-12-24T05:32:13.609Z,0
2017-12-24T05:33:22.708Z,0
2017-12-24T05:34:31.538Z,0
2017-12-24T05:35:40.369Z,0
2017-12-24T05:36:49.451Z,0
2017-12-24T05:37:58.278Z,0
2017-12-24T05:39:07.107Z,0
2017-12-24T05:40:15.935Z,0
2017-12-24T05:41:24.762Z,0
2017-12-24T05:42:33.689Z,0
2017-12-24T05:43:42.523Z,0
2017-12-24T05:44:51.346Z,0
2017-12-24T05:46:00.173Z,0
2017-12-24T05:47:09.000Z,0
2017-12-24T05:48:17.879Z,0
2017-12-24T05:49:26.711Z,0
2017-12-24T05:50:35.539Z,0
2017-12-24T05:51:44.366Z,0
2017-12-24T05:52:53.194Z,0
2017-12-24T05:54:02.173Z,0
2017-12-24T05:55:11.001Z,0
2017-12-24T05:56:19.829Z,0
2017-12-24T05:57:29.207Z,0
2017-12-24T05:58:38.034Z,0
2017-12-24T05:59:46.861Z,0
2017-12-24T06:00:55.691Z,0
2017-12-24T06:02:04.518Z,0
2017-12-24T06:03:13.352Z,0
2017-12-24T06:04:22.175Z,0
2017-12-24T06:05:31.056Z,0
2017-12-24T06:06:39.921Z,0
2017-12-24T06:07:48.782Z,0
2017-12-24T06:08:57.610Z,0
2017-12-24T06:10:06.440Z,0
2017-12-24T06:11:15.620Z,0
2017-12-24T06:12:24.450Z,0
2017-12-24T06:13:33.284Z,0
2017-12-24T06:14:42.109Z,0
2017-12-24T06:15:50.938Z,0
2017-12-24T06:16:59.767Z,0
2017-12-24T06:18:08.596Z,0
2017-12-24T06:19:17.423Z,0
2017-12-24T06:20:26.251Z,0
2017-12-24T06:21:35.082Z,0
2017-12-24T06:22:44.062Z,0
2017-12-24T06:23:52.889Z,0
2017-12-24T06:25:01.718Z,0
2017-12-24T06:26:10.551Z,0
2017-12-24T06:27:19.382Z,0
2017-12-24T06:28:28.212Z,0
2017-12-24T06:29:37.045Z,0
2017-12-24T06:30:45.871Z,0
2017-12-24T06:31:54.702Z,0
2017-12-24T06:33:03.532Z,0
2017-12-24T06:34:12.510Z,0
2017-12-24T06:35:21.342Z,0
2017-12-24T06:36:30.169Z,0
2017-12-24T06:37:38.997Z,0
2017-12-24T06:38:47.824Z,0
2017-12-24T06:39:56.754Z,0
2017-12-24T06:41:05.586Z,0
2017-12-24T06:42:14.689Z,0
2017-12-24T06:43:23.519Z,0
2017-12-24T06:44:32.350Z,0
2017-12-24T06:45:41.182Z,0
2017-12-24T06:46:50.016Z,0
2017-12-24T06:47:58.847Z,0
2017-12-24T06:49:07.678Z,0
2017-12-24T06:50:16.507Z,0
2017-12-24T06:51:25.390Z,0
2017-12-24T06:52:34.226Z,0
2017-12-24T06:53:43.054Z,0
2017-12-24T06:54:51.883Z,0
2017-12-24T06:56:00.716Z,0
2017-12-24T06:57:09.645Z,0
2017-12-24T06:58:18.472Z,0
2017-12-24T06:59:27.351Z,0
2017-12-24T07:00:36.454Z,0
2017-12-24T07:01:45.287Z,0
2017-12-24T07:02:54.214Z,0
2017-12-24T07:04:03.044Z,0
2017-12-24T07:05:11.875Z,0
2017-12-24T07:06:20.714Z,0
2017-12-24T07:07:29.542Z,0
2017-12-24T07:08:38.374Z,0
2017-12-24T07:09:47.203Z,0
2017-12-24T07:10:56.308Z,4
2017-12-24T07:12:05.412Z,4
2017-12-24T07:13:14.241Z,0
2017-12-24T07:14:23.228Z,0
2017-12-24T07:15:32.058Z,4
2017-12-24T07:16:40.890Z,4
2017-12-24T07:17:49.721Z,4
2017-12-24T07:18:58.546Z,4
2017-12-24T07:20:07.680Z,0
2017-12-24T07:21:16.512Z,4
2017-12-24T07:22:25.341Z,4
2017-12-24T07:23:34.170Z,8
2017-12-24T07:24:42.996Z,8
2017-12-24T07:25:51.925Z,4
2017-12-24T07:27:00.752Z,8
2017-12-24T07:28:09.582Z,8
2017-12-24T07:29:18.411Z,12
2017-12-24T07:30:27.239Z,12
2017-12-24T07:31:36.066Z,12
2017-12-24T07:32:45.175Z,12
2017-12-24T07:33:54.005Z,16
2017-12-24T07:35:02.836Z,16
2017-12-24T07:36:11.938Z,16
2017-12-24T07:37:21.167Z,20
2017-12-24T07:38:29.997Z,20
2017-12-24T07:39:38.827Z,28
2017-12-24T07:40:47.757Z,28
2017-12-24T07:41:56.586Z,24
2017-12-24T07:43:05.992Z,28
2017-12-24T07:44:14.820Z,28
2017-12-24T07:45:23.649Z,36
2017-12-24T07:46:32.752Z,36
2017-12-24T07:47:41.581Z,40
2017-12-24T07:48:50.410Z,48
2017-12-24T07:49:59.292Z,48
2017-12-24T07:51:08.071Z,48
2017-12-24T07:52:16.899Z,56
2017-12-24T07:53:25.728Z,60
2017-12-24T07:54:34.662Z,68
2017-12-24T07:55:43.761Z,64
2017-12-24T07:56:53.140Z,72
2017-12-24T07:58:01.969Z,72
2017-12-24T07:59:10.801Z,76
2017-12-24T08:00:20.004Z,92
2017-12-24T08:01:28.834Z,84
2017-12-24T08:02:37.665Z,84
2017-12-24T08:03:46.493Z,92
2017-12-24T08:04:55.323Z,96
2017-12-24T08:06:04.151Z,108
2017-12-24T08:07:12.979Z,124
2017-12-24T08:08:21.811Z,124
2017-12-24T08:09:30.643Z,120
2017-12-24T08:10:39.934Z,108
2017-12-24T08:11:48.765Z,112
2017-12-24T08:12:57.596Z,116
2017-12-24T08:14:06.421Z,104
2017-12-24T08:15:15.250Z,140
2017-12-24T08:16:24.080Z,132
2017-12-24T08:17:32.908Z,136
2017-12-24T08:18:41.738Z,164
2017-12-24T08:19:50.566Z,172
2017-12-24T08:20:59.395Z,148
2017-12-24T08:22:08.223Z,144
2017-12-24T08:23:17.050Z,148
2017-12-24T08:24:26.153Z,144
2017-12-24T08:25:34.981Z,140
2017-12-24T08:26:43.963Z,164
2017-12-24T08:27:52.796Z,180
2017-12-24T08:29:01.628Z,172
2017-12-24T08:30:10.454Z,168
2017-12-24T08:31:19.283Z,212
2017-12-24T08:32:28.111Z,184
2017-12-24T08:33:36.940Z,216
2017-12-24T08:34:45.767Z,220
2017-12-24T08:35:54.598Z,192
2017-12-24T08:37:03.786Z,188
2017-12-24T08:38:12.606Z,184
2017-12-24T08:39:21.436Z,204
2017-12-24T08:40:30.550Z,188
2017-12-24T08:41:39.389Z,180
2017-12-24T08:42:48.790Z,164
2017-12-24T08:43:57.895Z,192
2017-12-24T08:45:06.726Z,216
2017-12-24T08:46:15.557Z,188
2017-12-24T08:47:24.388Z,232
2017-12-24T08:48:33.219Z,200
2017-12-24T08:49:42.870Z,200
2017-12-24T08:50:52.494Z,192
2017-12-24T08:52:02.180Z,260
2017-12-24T08:53:11.667Z,268
2017-12-24T08:54:21.011Z,260
2017-12-24T08:55:30.196Z,284
2017-12-24T08:56:39.130Z,288
2017-12-24T08:57:48.020Z,244
2017-12-24T08:58:56.852Z,280
2017-12-24T09:00:05.808Z,296
2017-12-24T09:01:14.678Z,236
2017-12-24T09:02:23.534Z,268
2017-12-24T09:03:32.365Z,268
2017-12-24T09:04:41.196Z,352
2017-12-24T09:05:50.028Z,292
2017-12-24T09:06:58.859Z,296
2017-12-24T09:08:08.320Z,336
2017-12-24T09:09:17.151Z,376
2017-12-24T09:10:25.980Z,284
2017-12-24T09:11:35.115Z,372
2017-12-24T09:12:43.944Z,300
2017-12-24T09:13:54.522Z,352
2017-12-24T09:15:03.775Z,332
2017-12-24T09:16:12.998Z,364
2017-12-24T09:17:22.294Z,348
2017-12-24T09:18:31.434Z,332
2017-12-24T09:19:40.593Z,304
2017-12-24T09:20:49.961Z,300
2017-12-24T09:21:58.851Z,308
2017-12-24T09:23:07.980Z,348
2017-12-24T09:24:16.813Z,304
2017-12-24T09:25:25.928Z,328
2017-12-24T09:26:34.757Z,336
2017-12-24T09:27:43.593Z,288
2017-12-24T09:28:52.422Z,288
2017-12-24T09:30:01.253Z,276
2017-12-24T09:31:10.083Z,300
2017-12-24T09:32:18.916Z,300
2017-12-24T09:33:27.748Z,308
2017-12-24T09:34:36.576Z,336
2017-12-24T09:35:45.408Z,356
2017-12-24T09:36:54.237Z,380
2017-12-24T09:38:03.066Z,396
2017-12-24T09:39:12.179Z,404
2017-12-24T09:40:21.282Z,376
2017-12-24T09:41:30.113Z,440
2017-12-24T09:42:38.942Z,400
2017-12-24T09:43:47.771Z,404
2017-12-24T09:44:56.601Z,392
2017-12-24T09:46:05.680Z,404
2017-12-24T09:47:14.510Z,396
2017-12-24T09:48:23.340Z,424
2017-12-24T09:49:32.172Z,488
2017-12-24T09:50:41.002Z,524
2017-12-24T09:51:49.977Z,476
2017-12-24T09:52:58.808Z,532
2017-12-24T09:54:07.636Z,516
2017-12-24T09:55:16.467Z,624
2017-12-24T09:56:25.295Z,584
2017-12-24T09:57:34.374Z,496
2017-12-24T09:58:43.201Z,532
2017-12-24T09:59:52.031Z,508
2017-12-24T10:01:01.183Z,532
2017-12-24T10:02:09.978Z,548
2017-12-24T10:03:18.859Z,576
2017-12-24T10:04:27.688Z,544
2017-12-24T10:05:36.792Z,608
2017-12-24T10:06:45.622Z,600
2017-12-24T10:07:54.452Z,676
2017-12-24T10:09:03.280Z,556
2017-12-24T10:10:12.109Z,580
2017-12-24T10:11:21.214Z,564
2017-12-24T10:12:30.321Z,592
2017-12-24T10:13:39.151Z,568
2017-12-24T10:14:48.282Z,656
2017-12-24T10:15:57.111Z,652
2017-12-24T10:17:05.942Z,700
2017-12-24T10:18:14.778Z,672
2017-12-24T10:19:23.610Z,620
2017-12-24T10:20:32.863Z,692
2017-12-24T10:21:41.692Z,728
2017-12-24T10:22:50.523Z,616
2017-12-24T10:23:59.352Z,600
2017-12-24T10:25:08.455Z,660
2017-12-24T10:26:17.335Z,668
2017-12-24T10:27:26.167Z,768
2017-12-24T10:28:34.993Z,668
2017-12-24T10:29:43.823Z,704
2017-12-24T10:30:52.652Z,624
2017-12-24T10:32:01.633Z,636
2017-12-24T10:33:10.564Z,584
2017-12-24T10:34:19.396Z,624
2017-12-24T10:35:28.227Z,636
2017-12-24T10:36:37.056Z,640
2017-12-24T10:37:46.461Z,572
2017-12-24T10:38:55.572Z,580
2017-12-24T10:40:04.703Z,572
2017-12-24T10:41:13.537Z,632
2017-12-24T10:42:22.363Z,584
2017-12-24T10:43:31.294Z,528
2017-12-24T10:44:40.124Z,596
2017-12-24T10:45:48.955Z,588
2017-12-24T10:46:57.788Z,576
2017-12-24T10:48:06.615Z,624
2017-12-24T10:49:15.594Z,548
2017-12-24T10:50:24.425Z,516
2017-12-24T10:51:33.255Z,552
2017-12-24T10:52:42.165Z,700
2017-12-24T10:53:50.994Z,612
2017-12-24T10:54:59.876Z,616
2017-12-24T10:56:08.708Z,604
2017-12-24T10:57:17.815Z,668
2017-12-24T10:58:26.683Z,620
2017-12-24T10:59:35.785Z,660
2017-12-24T11:00:44.715Z,664
2017-12-24T11:01:53.603Z,628
2017-12-24T11:03:02.372Z,704
2017-12-24T11:04:11.477Z,592
2017-12-24T11:05:20.305Z,700
2017-12-24T11:06:29.450Z,616
2017-12-24T11:07:38.284Z,640
2017-12-24T11:08:47.112Z,688
2017-12-24T11:09:55.940Z,572
2017-12-24T11:11:04.768Z,772
2017-12-24T11:12:13.751Z,572
2017-12-24T11:13:22.779Z,556
2017-12-24T11:14:31.608Z,572
2017-12-24T11:15:40.439Z,640
2017-12-24T11:16:49.269Z,712
2017-12-24T11:17:58.249Z,712
2017-12-24T11:19:07.079Z,780
2017-12-24T11:20:16.184Z,656
2017-12-24T11:21:25.016Z,640
2017-12-24T11:22:33.847Z,656
2017-12-24T11:23:42.677Z,708
2017-12-24T11:24:51.783Z,628
2017-12-24T11:26:00.611Z,712
2017-12-24T11:27:09.443Z,820
2017-12-24T11:28:18.271Z,828
2017-12-24T11:29:27.205Z,848
2017-12-24T11:30:36.344Z,1092
2017-12-24T11:31:45.142Z,948
2017-12-24T11:32:53.966Z,1048
2017-12-24T11:34:02.796Z,948
2017-12-24T11:35:11.624Z,1076
2017-12-24T11:36:20.452Z,992
2017-12-24T11:37:29.284Z,924
2017-12-24T11:38:38.113Z,1032
2017-12-24T11:39:46.948Z,940
2017-12-24T11:40:55.931Z,952
2017-12-24T11:42:04.760Z,992
2017-12-24T11:43:13.869Z,876
2017-12-24T11:44:22.699Z,1032
2017-12-24T11:45:31.531Z,912
2017-12-24T11:46:40.510Z,828
2017-12-24T11:47:49.390Z,868
2017-12-24T11:48:58.169Z,1096
2017-12-24T11:50:07.003Z,936
2017-12-24T11:51:16.112Z,988
2017-12-24T11:52:25.044Z,852
2017-12-24T11:53:33.872Z,932
2017-12-24T11:54:42.700Z,920
2017-12-24T11:55:51.533Z,1012
2017-12-24T11:57:00.363Z,932
2017-12-24T11:58:09.343Z,848
2017-12-24T11:59:18.171Z,964
2017-12-24T12:00:27.007Z,1008
2017-12-24T12:01:35.842Z,944
2017-12-24T12:02:44.672Z,1120
2017-12-24T12:03:53.503Z,816
2017-12-24T12:05:02.334Z,968
2017-12-24T12:06:11.163Z,832
2017-12-24T12:07:19.993Z,804
2017-12-24T12:08:29.098Z,808
2017-12-24T12:09:38.079Z,752
2017-12-24T12:10:46.908Z,732
2017-12-24T12:11:55.737Z,840
2017-12-24T12:13:04.564Z,872
2017-12-24T12:14:13.395Z,1016
2017-12-24T12:15:22.379Z,980
2017-12-24T12:16:31.207Z,848
2017-12-24T12:17:40.038Z,896
2017-12-24T12:18:48.874Z,936
2017-12-24T12:19:58.256Z,776
2017-12-24T12:21:07.192Z,672
2017-12-24T12:22:16.315Z,808
2017-12-24T12:23:26.361Z,752
2017-12-24T12:24:35.628Z,852
2017-12-24T12:25:44.459Z,708
2017-12-24T12:26:53.694Z,660
2017-12-24T12:28:02.537Z,720
2017-12-24T12:29:11.372Z,736
2017-12-24T12:30:20.255Z,868
2017-12-24T12:31:29.084Z,900
2017-12-24T12:32:37.962Z,776
2017-12-24T12:33:46.792Z,700
2017-12-24T12:34:55.627Z,720
2017-12-24T12:36:04.452Z,800
2017-12-24T12:37:13.280Z,960
2017-12-24T12:38:22.268Z,832
2017-12-24T12:39:31.376Z,828
2017-12-24T12:40:40.205Z,796
2017-12-24T12:41:49.034Z,796
2017-12-24T12:42:57.864Z,780
2017-12-24T12:44:06.843Z,840
2017-12-24T12:45:15.673Z,684
2017-12-24T12:46:24.504Z,752
2017-12-24T12:47:33.336Z,788
2017-12-24T12:48:42.167Z,772
2017-12-24T12:49:51.145Z,876
2017-12-24T12:50:59.976Z,1144
2017-12-24T12:52:08.807Z,904
2017-12-24T12:53:17.639Z,920
2017-12-24T12:54:26.472Z,972
2017-12-24T12:55:35.612Z,880
2017-12-24T12:56:44.430Z,852
2017-12-24T12:57:53.537Z,868
2017-12-24T12:59:02.368Z,960
2017-12-24T13:00:11.199Z,840
2017-12-24T13:01:20.131Z,720
2017-12-24T13:02:28.962Z,844
2017-12-24T13:03:37.789Z,908
2017-12-24T13:04:46.619Z,868
2017-12-24T13:05:55.451Z,896
2017-12-24T13:07:04.558Z,996
2017-12-24T13:08:13.389Z,972
2017-12-24T13:09:22.268Z,1012
2017-12-24T13:10:31.097Z,1172
2017-12-24T13:11:39.927Z,1384
2017-12-24T13:12:48.860Z,1616
2017-12-24T13:13:57.692Z,1060
2017-12-24T13:15:06.524Z,1024
2017-12-24T13:16:15.354Z,1076
2017-12-24T13:17:24.229Z,1440
2017-12-24T13:18:33.014Z,1872
2017-12-24T13:19:41.845Z,1508
2017-12-24T13:20:50.677Z,936
2017-12-24T13:21:59.506Z,1080
2017-12-24T13:23:08.334Z,1508
2017-12-24T13:24:17.163Z,1212
2017-12-24T13:25:25.996Z,928
2017-12-24T13:26:35.105Z,1108
2017-12-24T13:27:43.933Z,1012
2017-12-24T13:28:52.766Z,1116
2017-12-24T13:30:01.599Z,1032
2017-12-24T13:31:10.431Z,1040
2017-12-24T13:32:19.260Z,1044
2017-12-24T13:33:28.090Z,916
2017-12-24T13:34:37.603Z,928
2017-12-24T13:35:46.435Z,1024
2017-12-24T13:36:55.266Z,952
2017-12-24T13:38:04.102Z,972
2017-12-24T13:39:12.927Z,1040
2017-12-24T13:40:21.758Z,1044
2017-12-24T13:41:30.737Z,1072
2017-12-24T13:42:39.570Z,980
2017-12-24T13:43:48.400Z,988
2017-12-24T13:44:57.506Z,752
2017-12-24T13:46:06.339Z,800
2017-12-24T13:47:15.469Z,812
2017-12-24T13:48:24.300Z,828
2017-12-24T13:49:33.132Z,952
2017-12-24T13:50:41.962Z,920
2017-12-24T13:51:50.793Z,828
2017-12-24T13:52:59.623Z,700
2017-12-24T13:54:09.004Z,736
2017-12-24T13:55:17.833Z,672
2017-12-24T13:56:26.663Z,672
2017-12-24T13:57:35.779Z,628
2017-12-24T13:58:44.660Z,644
2017-12-24T13:59:53.529Z,600
2017-12-24T14:01:02.319Z,532
2017-12-24T14:02:11.152Z,604
2017-12-24T14:03:19.979Z,608
2017-12-24T14:04:28.812Z,476
2017-12-24T14:05:37.640Z,380
2017-12-24T14:06:46.748Z,396
2017-12-24T14:07:55.577Z,444
2017-12-24T14:09:04.420Z,396
2017-12-24T14:10:13.252Z,348
2017-12-24T14:11:22.081Z,340
2017-12-24T14:12:30.912Z,296
2017-12-24T14:13:40.019Z,300
2017-12-24T14:14:48.855Z,320
2017-12-24T14:15:57.785Z,300
2017-12-24T14:17:06.614Z,284
2017-12-24T14:18:15.446Z,316
2017-12-24T14:19:24.276Z,312
2017-12-24T14:20:33.107Z,256
2017-12-24T14:21:42.236Z,276
2017-12-24T14:22:51.067Z,284
2017-12-24T14:23:59.905Z,244
2017-12-24T14:25:09.007Z,220
2017-12-24T14:26:18.110Z,220
2017-12-24T14:27:27.244Z,220
2017-12-24T14:28:36.074Z,216
2017-12-24T14:29:44.900Z,204
2017-12-24T14:30:53.730Z,180
2017-12-24T14:32:02.559Z,192
2017-12-24T14:33:11.486Z,204
2017-12-24T14:34:20.316Z,192
2017-12-24T14:35:29.146Z,192
2017-12-24T14:36:37.976Z,172
2017-12-24T14:37:46.808Z,164
2017-12-24T14:38:55.935Z,180
2017-12-24T14:40:04.765Z,192
2017-12-24T14:41:13.595Z,180
2017-12-24T14:42:22.425Z,172
2017-12-24T14:43:31.256Z,156
2017-12-24T14:44:40.137Z,136
2017-12-24T14:45:48.968Z,132
2017-12-24T14:46:57.798Z,108
2017-12-24T14:48:06.627Z,108
2017-12-24T14:49:15.457Z,112
2017-12-24T14:50:24.289Z,108
2017-12-24T14:51:33.118Z,92
2017-12-24T14:52:41.946Z,80
2017-12-24T14:53:50.776Z,88
2017-12-24T14:54:59.609Z,76
2017-12-24T14:56:08.538Z,68
2017-12-24T14:57:17.370Z,72
2017-12-24T14:58:26.197Z,56
2017-12-24T14:59:35.026Z,56
2017-12-24T15:00:43.858Z,52
2017-12-24T15:01:52.839Z,44
2017-12-24T15:03:01.668Z,40
2017-12-24T15:04:10.496Z,36
2017-12-24T15:05:19.328Z,40
2017-12-24T15:06:28.162Z,32
2017-12-24T15:07:37.561Z,32
2017-12-24T15:08:46.391Z,32
2017-12-24T15:09:55.226Z,28
2017-12-24T15:11:04.055Z,20
2017-12-24T15:12:12.884Z,24
2017-12-24T15:13:21.865Z,20
2017-12-24T15:14:30.694Z,20
2017-12-24T15:15:39.526Z,20
2017-12-24T15:16:48.356Z,16
2017-12-24T15:17:57.186Z,16
2017-12-24T15:19:06.115Z,16
2017-12-24T15:20:15.047Z,16
2017-12-24T15:21:24.155Z,12
2017-12-24T15:22:32.985Z,12
2017-12-24T15:23:41.814Z,12
2017-12-24T15:24:50.743Z,12
2017-12-24T15:25:59.847Z,4
2017-12-24T15:27:08.676Z,4
2017-12-24T15:28:17.506Z,8
2017-12-24T15:29:26.334Z,4
2017-12-24T15:30:35.214Z,4
2017-12-24T15:31:44.050Z,0
2017-12-24T15:32:52.878Z,4
2017-12-24T15:34:01.713Z,4
2017-12-24T15:35:10.543Z,0
2017-12-24T15:36:19.419Z,0
2017-12-24T15:37:28.248Z,0
2017-12-24T15:38:37.179Z,4
2017-12-24T15:39:46.009Z,4
2017-12-24T15:40:54.836Z,0
2017-12-24T15:42:03.716Z,0
2017-12-24T15:43:12.546Z,0
2017-12-24T15:44:21.650Z,0
2017-12-24T15:45:30.531Z,0
2017-12-24T15:46:39.360Z,0
2017-12-24T15:47:48.490Z,0
2017-12-24T15:48:57.321Z,0
2017-12-24T15:50:06.148Z,0
2017-12-24T15:51:14.979Z,0
2017-12-24T15:52:23.848Z,0
2017-12-24T15:53:32.723Z,0
2017-12-24T15:54:41.552Z,4
2017-12-24T15:55:50.381Z,0
2017-12-24T15:56:59.212Z,0
2017-12-24T15:58:08.041Z,0
2017-12-24T15:59:16.969Z,0
2017-12-24T16:00:25.799Z,4
2017-12-24T16:01:34.633Z,0
2017-12-24T16:02:43.737Z,0
2017-12-24T16:03:52.569Z,0
2017-12-24T16:05:01.551Z,0
2017-12-24T16:06:10.666Z,0
2017-12-24T16:07:19.499Z,0
2017-12-24T16:08:28.331Z,0
2017-12-24T16:09:37.161Z,0
2017-12-24T16:10:46.142Z,0
2017-12-24T16:11:55.426Z,0
2017-12-24T16:13:04.258Z,0
2017-12-24T16:14:13.137Z,0
2017-12-24T16:15:22.241Z,0
2017-12-24T16:16:31.272Z,0
2017-12-24T16:17:40.101Z,0
2017-12-24T16:18:48.932Z,0
2017-12-24T16:19:57.764Z,0
2017-12-24T16:21:06.876Z,0
2017-12-24T16:22:15.857Z,0
2017-12-24T16:23:24.687Z,0
2017-12-24T16:24:33.514Z,0